sensor_id;sensor_type;location;lat;lon;timestamp;pressure;altitude;pressure_sealevel;temperature;humidity
4449;BME280;2237;51.870;6.160;2023-04-15T00:01:48;100718.16;;;12.01;69.98
4449;BME280;2237;51.870;6.160;2023-04-15T00:04:14;100708.59;;;12.00;71.10
4449;BME280;2237;51.870;6.160;2023-04-15T00:06:41;100712.16;;;11.97;72.08
4449;BME280;2237;51.870;6.160;2023-04-15T00:09:07;100707.97;;;11.92;73.18
4449;BME280;2237;51.870;6.160;2023-04-15T00:11:34;100712.31;;;11.93;73.61
4449;BME280;2237;51.870;6.160;2023-04-15T00:14:00;100711.47;;;11.90;74.17
4449;BME280;2237;51.870;6.160;2023-04-15T00:16:27;100712.50;;;11.86;75.65
4449;BME280;2237;51.870;6.160;2023-04-15T00:18:53;100708.41;;;11.76;78.08
4449;BME280;2237;51.870;6.160;2023-04-15T00:21:19;100709.44;;;11.72;79.02
4449;BME280;2237;51.870;6.160;2023-04-15T00:23:46;100710.31;;;11.71;79.50
4449;BME280;2237;51.870;6.160;2023-04-15T00:26:17;100704.44;;;11.63;81.11
4449;BME280;2237;51.870;6.160;2023-04-15T00:28:45;100711.50;;;11.60;81.35
4449;BME280;2237;51.870;6.160;2023-04-15T00:31:11;100705.41;;;11.59;80.88
4449;BME280;2237;51.870;6.160;2023-04-15T00:33:37;100708.75;;;11.64;81.13
4449;BME280;2237;51.870;6.160;2023-04-15T00:36:05;100713.78;;;11.72;79.68
4449;BME280;2237;51.870;6.160;2023-04-15T00:38:32;100707.94;;;11.62;81.59
4449;BME280;2237;51.870;6.160;2023-04-15T00:40:58;100708.78;;;11.63;82.04
4449;BME280;2237;51.870;6.160;2023-04-15T00:43:25;100712.34;;;11.60;82.92
4449;BME280;2237;51.870;6.160;2023-04-15T00:45:52;100715.22;;;11.51;83.91
4449;BME280;2237;51.870;6.160;2023-04-15T00:48:19;100712.00;;;11.42;85.25
4449;BME280;2237;51.870;6.160;2023-04-15T00:50:46;100718.84;;;11.46;84.85
4449;BME280;2237;51.870;6.160;2023-04-15T00:53:12;100717.81;;;11.51;83.78
4449;BME280;2237;51.870;6.160;2023-04-15T00:55:39;100712.84;;;11.42;85.28
4449;BME280;2237;51.870;6.160;2023-04-15T00:58:05;100715.53;;;11.39;86.16
4449;BME280;2237;51.870;6.160;2023-04-15T01:00:32;100725.03;;;11.42;84.70
4449;BME280;2237;51.870;6.160;2023-04-15T01:02:59;100713.19;;;11.30;87.06
4449;BME280;2237;51.870;6.160;2023-04-15T01:05:27;100718.88;;;11.12;90.49
4449;BME280;2237;51.870;6.160;2023-04-15T01:07:54;100723.19;;;11.13;90.07
4449;BME280;2237;51.870;6.160;2023-04-15T01:10:20;100724.16;;;11.09;91.71
4449;BME280;2237;51.870;6.160;2023-04-15T01:12:47;100722.47;;;11.08;91.35
4449;BME280;2237;51.870;6.160;2023-04-15T01:15:14;100721.78;;;11.01;93.29
4449;BME280;2237;51.870;6.160;2023-04-15T01:17:41;100719.16;;;11.01;93.58
4449;BME280;2237;51.870;6.160;2023-04-15T01:20:08;100712.38;;;10.94;93.91
4449;BME280;2237;51.870;6.160;2023-04-15T01:22:37;100718.50;;;10.93;95.53
4449;BME280;2237;51.870;6.160;2023-04-15T01:25:09;100728.03;;;10.94;95.66
4449;BME280;2237;51.870;6.160;2023-04-15T01:27:40;100721.97;;;10.94;94.83
4449;BME280;2237;51.870;6.160;2023-04-15T01:30:08;100722.06;;;10.89;95.85
4449;BME280;2237;51.870;6.160;2023-04-15T01:32:35;100722.22;;;10.83;97.52
4449;BME280;2237;51.870;6.160;2023-04-15T01:35:01;100716.94;;;10.86;97.05
4449;BME280;2237;51.870;6.160;2023-04-15T01:37:28;100715.28;;;10.84;97.32
4449;BME280;2237;51.870;6.160;2023-04-15T01:39:55;100712.75;;;10.81;98.42
4449;BME280;2237;51.870;6.160;2023-04-15T01:42:23;100717.16;;;10.78;98.81
4449;BME280;2237;51.870;6.160;2023-04-15T01:44:49;100715.47;;;10.76;99.74
4449;BME280;2237;51.870;6.160;2023-04-15T01:47:16;100710.38;;;10.71;100.00
4449;BME280;2237;51.870;6.160;2023-04-15T01:49:42;100725.91;;;10.74;100.00
4449;BME280;2237;51.870;6.160;2023-04-15T01:52:09;100720.84;;;10.68;100.00
4449;BME280;2237;51.870;6.160;2023-04-15T01:54:35;100723.53;;;10.65;100.00
4449;BME280;2237;51.870;6.160;2023-04-15T01:57:02;100722.66;;;10.66;100.00
4449;BME280;2237;51.870;6.160;2023-04-15T01:59:29;100719.91;;;10.72;100.00
4449;BME280;2237;51.870;6.160;2023-04-15T02:01:57;100721.94;;;10.60;100.00
4449;BME280;2237;51.870;6.160;2023-04-15T02:04:23;100725.31;;;10.65;100.00
4449;BME280;2237;51.870;6.160;2023-04-15T02:06:50;100722.66;;;10.66;100.00
4449;BME280;2237;51.870;6.160;2023-04-15T02:09:16;100726.34;;;10.58;100.00
4449;BME280;2237;51.870;6.160;2023-04-15T02:11:42;100722.78;;;10.60;100.00
4449;BME280;2237;51.870;6.160;2023-04-15T02:14:09;100729.13;;;10.50;100.00
4449;BME280;2237;51.870;6.160;2023-04-15T02:16:35;100729.97;;;10.51;100.00
4449;BME280;2237;51.870;6.160;2023-04-15T02:19:02;100728.22;;;10.51;100.00
4449;BME280;2237;51.870;6.160;2023-04-15T02:21:29;100738.69;;;10.50;100.00
4449;BME280;2237;51.870;6.160;2023-04-15T02:23:55;100731.81;;;10.47;100.00
4449;BME280;2237;51.870;6.160;2023-04-15T02:26:22;100738.78;;;10.45;100.00
4449;BME280;2237;51.870;6.160;2023-04-15T02:28:50;100731.09;;;10.39;100.00
4449;BME280;2237;51.870;6.160;2023-04-15T02:31:17;100731.28;;;10.33;100.00
4449;BME280;2237;51.870;6.160;2023-04-15T02:33:44;100746.97;;;10.29;100.00
4449;BME280;2237;51.870;6.160;2023-04-15T02:36:10;100740.97;;;10.25;100.00
4449;BME280;2237;51.870;6.160;2023-04-15T02:38:37;100753.97;;;10.27;100.00
4449;BME280;2237;51.870;6.160;2023-04-15T02:41:05;100755.56;;;10.32;100.00
4449;BME280;2237;51.870;6.160;2023-04-15T02:43:32;100751.13;;;10.37;100.00
4449;BME280;2237;51.870;6.160;2023-04-15T02:45:58;100761.50;;;10.39;100.00
4449;BME280;2237;51.870;6.160;2023-04-15T02:48:25;100756.25;;;10.40;100.00
4449;BME280;2237;51.870;6.160;2023-04-15T02:50:52;100764.19;;;10.34;100.00
4449;BME280;2237;51.870;6.160;2023-04-15T02:53:18;100759.84;;;10.35;100.00
4449;BME280;2237;51.870;6.160;2023-04-15T02:55:45;100772.81;;;10.36;100.00
4449;BME280;2237;51.870;6.160;2023-04-15T02:58:11;100765.84;;;10.38;100.00
4449;BME280;2237;51.870;6.160;2023-04-15T03:00:38;100769.28;;;10.40;100.00
4449;BME280;2237;51.870;6.160;2023-04-15T03:03:04;100757.38;;;10.30;100.00
4449;BME280;2237;51.870;6.160;2023-04-15T03:05:32;100773.00;;;10.29;100.00
4449;BME280;2237;51.870;6.160;2023-04-15T03:07:58;100772.19;;;10.27;100.00
4449;BME280;2237;51.870;6.160;2023-04-15T03:10:26;100768.84;;;10.20;100.00
4449;BME280;2237;51.870;6.160;2023-04-15T03:12:53;100774.19;;;10.14;100.00
4449;BME280;2237;51.870;6.160;2023-04-15T03:15:19;100766.47;;;10.08;100.00
4449;BME280;2237;51.870;6.160;2023-04-15T03:17:46;100774.28;;;10.09;100.00
4449;BME280;2237;51.870;6.160;2023-04-15T03:20:14;100774.22;;;10.11;100.00
4449;BME280;2237;51.870;6.160;2023-04-15T03:22:41;100782.88;;;10.13;100.00
4449;BME280;2237;51.870;6.160;2023-04-15T03:25:07;100776.88;;;10.09;100.00
4449;BME280;2237;51.870;6.160;2023-04-15T03:27:34;100783.94;;;10.03;100.00
4449;BME280;2237;51.870;6.160;2023-04-15T03:30:00;100781.56;;;9.92;100.00
4449;BME280;2237;51.870;6.160;2023-04-15T03:32:27;100789.38;;;9.92;100.00
4449;BME280;2237;51.870;6.160;2023-04-15T03:34:53;100787.72;;;9.87;100.00
4449;BME280;2237;51.870;6.160;2023-04-15T03:37:20;100788.66;;;9.84;100.00
4449;BME280;2237;51.870;6.160;2023-04-15T03:39:46;100792.09;;;9.85;100.00
4449;BME280;2237;51.870;6.160;2023-04-15T03:42:13;100795.53;;;9.87;100.00
4449;BME280;2237;51.870;6.160;2023-04-15T03:44:39;100790.31;;;9.88;100.00
4449;BME280;2237;51.870;6.160;2023-04-15T03:47:05;100799.09;;;9.83;100.00
4449;BME280;2237;51.870;6.160;2023-04-15T03:49:32;100801.81;;;9.77;100.00
4449;BME280;2237;51.870;6.160;2023-04-15T03:51:59;100801.81;;;9.77;100.00
4449;BME280;2237;51.870;6.160;2023-04-15T03:54:25;100796.72;;;9.72;100.00
4449;BME280;2237;51.870;6.160;2023-04-15T03:56:51;100807.84;;;9.79;100.00
4449;BME280;2237;51.870;6.160;2023-04-15T03:59:18;100812.22;;;9.77;100.00
4449;BME280;2237;51.870;6.160;2023-04-15T04:01:44;100811.34;;;9.76;100.00
4449;BME280;2237;51.870;6.160;2023-04-15T04:04:11;100809.63;;;9.75;100.00
4449;BME280;2237;51.870;6.160;2023-04-15T04:06:38;100807.94;;;9.74;100.00
4449;BME280;2237;51.870;6.160;2023-04-15T04:09:04;100802.78;;;9.71;100.00
4449;BME280;2237;51.870;6.160;2023-04-15T04:11:30;100816.66;;;9.72;100.00
4449;BME280;2237;51.870;6.160;2023-04-15T04:13:58;100822.81;;;9.66;100.00
4449;BME280;2237;51.870;6.160;2023-04-15T04:16:24;100828.03;;;9.64;100.00
4449;BME280;2237;51.870;6.160;2023-04-15T04:18:51;100822.09;;;9.58;100.00
4449;BME280;2237;51.870;6.160;2023-04-15T04:21:17;100829.94;;;9.56;100.00
4449;BME280;2237;51.870;6.160;2023-04-15T04:23:45;100827.41;;;9.52;100.00
4449;BME280;2237;51.870;6.160;2023-04-15T04:26:11;100838.75;;;9.46;100.00
4449;BME280;2237;51.870;6.160;2023-04-15T04:28:37;100835.41;;;9.41;100.00
4449;BME280;2237;51.870;6.160;2023-04-15T04:31:07;100835.50;;;9.35;100.00
4449;BME280;2237;51.870;6.160;2023-04-15T04:33:33;100845.94;;;9.32;100.00
4449;BME280;2237;51.870;6.160;2023-04-15T04:35:59;100843.47;;;9.25;100.00
4449;BME280;2237;51.870;6.160;2023-04-15T04:38:26;100847.91;;;9.20;100.00
4449;BME280;2237;51.870;6.160;2023-04-15T04:40:52;100852.25;;;9.19;100.00
4449;BME280;2237;51.870;6.160;2023-04-15T04:43:19;100853.16;;;9.15;100.00
4449;BME280;2237;51.870;6.160;2023-04-15T04:45:45;100863.53;;;9.17;100.00
4449;BME280;2237;51.870;6.160;2023-04-15T04:48:12;100857.50;;;9.16;100.00
4449;BME280;2237;51.870;6.160;2023-04-15T04:50:38;100856.72;;;9.11;100.00
4449;BME280;2237;51.870;6.160;2023-04-15T04:53:05;100851.56;;;9.06;100.00
4449;BME280;2237;51.870;6.160;2023-04-15T04:55:31;100861.78;;;9.17;100.00
4449;BME280;2237;51.870;6.160;2023-04-15T04:57:58;100871.25;;;9.21;100.00
4449;BME280;2237;51.870;6.160;2023-04-15T05:00:24;100876.44;;;9.21;100.00
4449;BME280;2237;51.870;6.160;2023-04-15T05:02:51;100876.50;;;9.20;100.00
4449;BME280;2237;51.870;6.160;2023-04-15T05:05:17;100877.31;;;9.20;100.00
4449;BME280;2237;51.870;6.160;2023-04-15T05:07:44;100883.47;;;9.16;100.00
4449;BME280;2237;51.870;6.160;2023-04-15T05:10:10;100886.06;;;9.16;100.00
4449;BME280;2237;51.870;6.160;2023-04-15T05:12:37;100882.47;;;9.23;100.00
4449;BME280;2237;51.870;6.160;2023-04-15T05:15:05;100885.03;;;9.26;100.00
4449;BME280;2237;51.870;6.160;2023-04-15T05:17:31;100886.69;;;9.30;100.00
4449;BME280;2237;51.870;6.160;2023-04-15T05:20:01;100891.84;;;9.32;100.00
4449;BME280;2237;51.870;6.160;2023-04-15T05:22:28;100898.78;;;9.33;100.00
4449;BME280;2237;51.870;6.160;2023-04-15T05:24:54;100890.06;;;9.37;100.00
4449;BME280;2237;51.870;6.160;2023-04-15T05:27:21;100904.72;;;9.41;100.00
4449;BME280;2237;51.870;6.160;2023-04-15T05:29:49;100908.13;;;9.44;100.00
4449;BME280;2237;51.870;6.160;2023-04-15T05:32:15;100911.53;;;9.46;100.00
4449;BME280;2237;51.870;6.160;2023-04-15T05:34:42;100912.34;;;9.50;100.00
4449;BME280;2237;51.870;6.160;2023-04-15T05:37:08;100910.72;;;9.46;100.00
4449;BME280;2237;51.870;6.160;2023-04-15T05:39:35;100914.81;;;9.59;100.00
4449;BME280;2237;51.870;6.160;2023-04-15T05:42:01;100923.28;;;9.72;100.00
4449;BME280;2237;51.870;6.160;2023-04-15T05:44:28;100928.19;;;9.87;100.00
4449;BME280;2237;51.870;6.160;2023-04-15T05:46:55;100929.63;;;10.03;100.00
4449;BME280;2237;51.870;6.160;2023-04-15T05:49:22;100926.00;;;10.11;100.00
4449;BME280;2237;51.870;6.160;2023-04-15T05:51:48;100933.56;;;10.25;100.00
4449;BME280;2237;51.870;6.160;2023-04-15T05:54:15;100936.88;;;10.35;100.00
4449;BME280;2237;51.870;6.160;2023-04-15T05:56:45;100941.03;;;10.43;100.00
4449;BME280;2237;51.870;6.160;2023-04-15T05:59:11;100941.78;;;10.50;100.00
4449;BME280;2237;51.870;6.160;2023-04-15T06:01:38;100949.47;;;10.56;100.00
4449;BME280;2237;51.870;6.160;2023-04-15T06:04:05;100955.44;;;10.61;100.00
4449;BME280;2237;51.870;6.160;2023-04-15T06:06:31;100965.75;;;10.65;100.00
4449;BME280;2237;51.870;6.160;2023-04-15T06:08:58;100964.06;;;10.63;100.00
4449;BME280;2237;51.870;6.160;2023-04-15T06:11:25;100973.56;;;10.65;100.00
4449;BME280;2237;51.870;6.160;2023-04-15T06:13:52;100975.41;;;10.60;100.00
4449;BME280;2237;51.870;6.160;2023-04-15T06:16:18;100964.09;;;10.61;100.00
4449;BME280;2237;51.870;6.160;2023-04-15T06:18:45;100984.88;;;10.64;100.00
4449;BME280;2237;51.870;6.160;2023-04-15T06:21:11;100985.63;;;10.69;100.00
4449;BME280;2237;51.870;6.160;2023-04-15T06:23:38;100977.75;;;10.72;100.00
4449;BME280;2237;51.870;6.160;2023-04-15T06:26:06;100990.66;;;10.78;100.00
4449;BME280;2237;51.870;6.160;2023-04-15T06:28:33;100981.16;;;10.76;100.00
4449;BME280;2237;51.870;6.160;2023-04-15T06:30:59;100988.81;;;10.84;100.00
4449;BME280;2237;51.870;6.160;2023-04-15T06:33:27;100998.22;;;10.91;100.00
4449;BME280;2237;51.870;6.160;2023-04-15T06:35:53;101004.22;;;10.94;100.00
4449;BME280;2237;51.870;6.160;2023-04-15T06:38:20;100999.13;;;10.90;100.00
4449;BME280;2237;51.870;6.160;2023-04-15T06:40:46;101012.06;;;10.93;100.00
4449;BME280;2237;51.870;6.160;2023-04-15T06:43:13;101008.53;;;10.95;100.00
4449;BME280;2237;51.870;6.160;2023-04-15T06:45:39;101019.78;;;10.97;100.00
4449;BME280;2237;51.870;6.160;2023-04-15T06:48:05;101015.50;;;10.96;100.00
4449;BME280;2237;51.870;6.160;2023-04-15T06:50:32;101024.16;;;10.97;100.00
4449;BME280;2237;51.870;6.160;2023-04-15T06:52:58;101027.72;;;10.93;100.00
4449;BME280;2237;51.870;6.160;2023-04-15T06:55:25;101026.91;;;10.91;100.00
4449;BME280;2237;51.870;6.160;2023-04-15T06:57:52;101028.53;;;10.95;100.00
4449;BME280;2237;51.870;6.160;2023-04-15T07:00:19;101032.75;;;11.02;100.00
4449;BME280;2237;51.870;6.160;2023-04-15T07:02:45;101029.16;;;11.06;100.00
4449;BME280;2237;51.870;6.160;2023-04-15T07:05:12;101031.63;;;11.12;100.00
4449;BME280;2237;51.870;6.160;2023-04-15T07:07:38;101038.50;;;11.16;100.00
4449;BME280;2237;51.870;6.160;2023-04-15T07:10:10;101039.00;;;11.33;100.00
4449;BME280;2237;51.870;6.160;2023-04-15T07:12:45;101046.75;;;11.36;100.00
4449;BME280;2237;51.870;6.160;2023-04-15T07:15:11;101050.97;;;11.42;100.00
4449;BME280;2237;51.870;6.160;2023-04-15T07:17:37;101044.63;;;11.53;100.00
4449;BME280;2237;51.870;6.160;2023-04-15T07:20:04;101053.75;;;11.74;100.00
4449;BME280;2237;51.870;6.160;2023-04-15T07:22:31;101059.75;;;11.77;100.00
4449;BME280;2237;51.870;6.160;2023-04-15T07:24:58;101062.09;;;11.88;100.00
4449;BME280;2237;51.870;6.160;2023-04-15T07:27:33;101060.03;;;12.02;100.00
4449;BME280;2237;51.870;6.160;2023-04-15T07:30:05;101061.41;;;12.17;100.00
4449;BME280;2237;51.870;6.160;2023-04-15T07:32:31;101069.97;;;12.22;100.00
4449;BME280;2237;51.870;6.160;2023-04-15T07:34:58;101064.66;;;12.26;100.00
4449;BME280;2237;51.870;6.160;2023-04-15T07:37:24;101067.97;;;12.31;100.00
4449;BME280;2237;51.870;6.160;2023-04-15T07:39:51;101073.91;;;12.38;100.00
4449;BME280;2237;51.870;6.160;2023-04-15T07:42:18;101076.94;;;12.55;100.00
4449;BME280;2237;51.870;6.160;2023-04-15T07:44:44;101074.97;;;12.63;100.00
4449;BME280;2237;51.870;6.160;2023-04-15T07:47:11;101080.94;;;12.68;100.00
4449;BME280;2237;51.870;6.160;2023-04-15T07:49:37;101090.03;;;12.86;100.00
4449;BME280;2237;51.870;6.160;2023-04-15T07:52:04;101094.03;;;12.99;100.00
4449;BME280;2237;51.870;6.160;2023-04-15T07:54:31;101090.16;;;13.14;100.00
4449;BME280;2237;51.870;6.160;2023-04-15T07:56:57;101098.88;;;13.14;100.00
4449;BME280;2237;51.870;6.160;2023-04-15T07:59:24;101097.00;;;13.18;100.00
4449;BME280;2237;51.870;6.160;2023-04-15T08:01:50;101101.94;;;13.28;99.49
4449;BME280;2237;51.870;6.160;2023-04-15T08:04:16;101100.41;;;13.21;97.76
4449;BME280;2237;51.870;6.160;2023-04-15T08:06:43;101114.88;;;13.33;97.03
4449;BME280;2237;51.870;6.160;2023-04-15T08:09:09;101106.22;;;13.31;96.76
4449;BME280;2237;51.870;6.160;2023-04-15T08:11:36;101108.13;;;13.55;95.90
4449;BME280;2237;51.870;6.160;2023-04-15T08:14:03;101113.81;;;13.69;95.02
4449;BME280;2237;51.870;6.160;2023-04-15T08:16:29;101113.81;;;13.69;94.31
4449;BME280;2237;51.870;6.160;2023-04-15T08:18:56;101118.22;;;13.67;93.51
4449;BME280;2237;51.870;6.160;2023-04-15T08:21:23;101130.22;;;13.74;92.36
4449;BME280;2237;51.870;6.160;2023-04-15T08:23:51;101130.84;;;13.82;91.95
4449;BME280;2237;51.870;6.160;2023-04-15T08:26:18;101126.94;;;13.95;91.52
4449;BME280;2237;51.870;6.160;2023-04-15T08:28:45;101119.91;;;13.97;89.83
4449;BME280;2237;51.870;6.160;2023-04-15T08:31:16;101121.91;;;13.89;88.64
4449;BME280;2237;51.870;6.160;2023-04-15T08:33:43;101113.03;;;13.93;88.51
4449;BME280;2237;51.870;6.160;2023-04-15T08:36:09;101126.44;;;14.10;88.00
4449;BME280;2237;51.870;6.160;2023-04-15T08:38:36;101126.16;;;14.20;86.99
4449;BME280;2237;51.870;6.160;2023-04-15T08:41:11;101124.56;;;14.15;85.64
4449;BME280;2237;51.870;6.160;2023-04-15T08:44:05;101129.09;;;14.37;86.00
4449;BME280;2237;51.870;6.160;2023-04-15T08:46:32;101137.03;;;14.35;85.39
4449;BME280;2237;51.870;6.160;2023-04-15T08:49:10;101143.22;;;14.33;85.28
4449;BME280;2237;51.870;6.160;2023-04-15T08:51:41;101143.22;;;14.33;86.08
4449;BME280;2237;51.870;6.160;2023-04-15T08:54:08;101147.25;;;14.43;85.72
4449;BME280;2237;51.870;6.160;2023-04-15T08:56:35;101151.41;;;14.50;84.40
4449;BME280;2237;51.870;6.160;2023-04-15T08:59:02;101148.97;;;14.70;84.18
4449;BME280;2237;51.870;6.160;2023-04-15T09:01:30;101147.50;;;14.86;81.61
4449;BME280;2237;51.870;6.160;2023-04-15T09:03:58;101145.72;;;14.88;78.79
4449;BME280;2237;51.870;6.160;2023-04-15T09:06:24;101157.38;;;15.04;78.63
4449;BME280;2237;51.870;6.160;2023-04-15T09:08:51;101155.81;;;15.23;75.93
4449;BME280;2237;51.870;6.160;2023-04-15T09:11:18;101159.38;;;15.44;73.76
4449;BME280;2237;51.870;6.160;2023-04-15T09:13:48;101165.31;;;15.51;72.82
4449;BME280;2237;51.870;6.160;2023-04-15T09:16:14;101170.53;;;15.52;71.38
4449;BME280;2237;51.870;6.160;2023-04-15T09:18:41;101170.56;;;15.74;72.60
4449;BME280;2237;51.870;6.160;2023-04-15T09:21:13;101177.44;;;15.55;68.53
4449;BME280;2237;51.870;6.160;2023-04-15T09:23:53;101180.72;;;15.60;69.58
4449;BME280;2237;51.870;6.160;2023-04-15T09:26:30;101173.25;;;15.72;67.79
4449;BME280;2237;51.870;6.160;2023-04-15T09:29:07;101180.03;;;15.78;68.73
4449;BME280;2237;51.870;6.160;2023-04-15T09:31:35;101198.75;;;15.44;67.82
4449;BME280;2237;51.870;6.160;2023-04-15T09:34:02;101194.56;;;15.40;67.41
4449;BME280;2237;51.870;6.160;2023-04-15T09:36:29;101199.31;;;15.54;68.57
4449;BME280;2237;51.870;6.160;2023-04-15T09:39:01;101192.25;;;15.56;68.61
4449;BME280;2237;51.870;6.160;2023-04-15T09:41:28;101198.13;;;15.86;68.01
4449;BME280;2237;51.870;6.160;2023-04-15T09:43:54;101192.13;;;16.27;66.89
4449;BME280;2237;51.870;6.160;2023-04-15T09:46:43;101201.81;;;16.47;65.83
4449;BME280;2237;51.870;6.160;2023-04-15T09:49:11;101200.09;;;16.46;65.29
4449;BME280;2237;51.870;6.160;2023-04-15T09:51:38;101206.22;;;16.46;63.62
4449;BME280;2237;51.870;6.160;2023-04-15T09:54:04;101215.81;;;16.25;63.50
4449;BME280;2237;51.870;6.160;2023-04-15T09:56:33;101218.47;;;16.02;65.38
4449;BME280;2237;51.870;6.160;2023-04-15T09:59:00;101223.03;;;15.75;66.99
4449;BME280;2237;51.870;6.160;2023-04-15T10:01:26;101219.44;;;15.78;70.47
4449;BME280;2237;51.870;6.160;2023-04-15T10:03:54;101229.13;;;15.76;71.47
4449;BME280;2237;51.870;6.160;2023-04-15T10:06:22;101214.53;;;15.69;70.15
4449;BME280;2237;51.870;6.160;2023-04-15T10:08:51;101212.41;;;15.78;69.94
4449;BME280;2237;51.870;6.160;2023-04-15T10:11:19;101224.84;;;15.73;67.72
4449;BME280;2237;51.870;6.160;2023-04-15T10:13:49;101223.41;;;15.88;67.12
4449;BME280;2237;51.870;6.160;2023-04-15T10:16:19;101224.22;;;15.90;67.17
4449;BME280;2237;51.870;6.160;2023-04-15T10:18:49;101225.34;;;16.06;66.51
4449;BME280;2237;51.870;6.160;2023-04-15T10:21:17;101221.00;;;16.05;66.32
4449;BME280;2237;51.870;6.160;2023-04-15T10:23:44;101228.66;;;15.88;66.85
4449;BME280;2237;51.870;6.160;2023-04-15T10:26:11;101225.69;;;15.97;66.38
4449;BME280;2237;51.870;6.160;2023-04-15T10:28:40;101239.97;;;16.13;65.90
4449;BME280;2237;51.870;6.160;2023-04-15T10:31:06;101238.84;;;16.42;65.91
4449;BME280;2237;51.870;6.160;2023-04-15T10:33:34;101231.44;;;16.73;63.56
4449;BME280;2237;51.870;6.160;2023-04-15T10:36:01;101236.22;;;16.64;61.39
4449;BME280;2237;51.870;6.160;2023-04-15T10:38:31;101260.28;;;16.75;61.16
4449;BME280;2237;51.870;6.160;2023-04-15T10:41:21;101249.91;;;16.72;60.03
4449;BME280;2237;51.870;6.160;2023-04-15T10:43:55;101257.38;;;16.61;59.50
4449;BME280;2237;51.870;6.160;2023-04-15T10:46:40;101256.47;;;16.62;58.49
4449;BME280;2237;51.870;6.160;2023-04-15T10:51:38;101258.56;;;16.52;61.78
4449;BME280;2237;51.870;6.160;2023-04-15T10:59:35;101251.00;;;16.88;61.89
4449;BME280;2237;51.870;6.160;2023-04-15T11:02:06;101268.56;;;17.08;60.96
4449;BME280;2237;51.870;6.160;2023-04-15T11:04:53;101264.22;;;17.27;58.06
4449;BME280;2237;51.870;6.160;2023-04-15T11:07:54;101273.44;;;17.59;57.80
4449;BME280;2237;51.870;6.160;2023-04-15T11:12:49;101274.69;;;17.89;52.25
4449;BME280;2237;51.870;6.160;2023-04-15T11:15:38;101272.31;;;17.83;53.78
4449;BME280;2237;51.870;6.160;2023-04-15T11:18:25;101271.53;;;17.99;53.90
4449;BME280;2237;51.870;6.160;2023-04-15T11:20:55;101263.50;;;18.21;51.82
4449;BME280;2237;51.870;6.160;2023-04-15T11:23:39;101266.38;;;18.17;51.32
4449;BME280;2237;51.870;6.160;2023-04-15T11:26:09;101271.28;;;18.24;51.93
4449;BME280;2237;51.870;6.160;2023-04-15T11:28:43;101280.31;;;18.00;51.82
4449;BME280;2237;51.870;6.160;2023-04-15T11:34:01;101290.34;;;17.92;51.49
4449;BME280;2237;51.870;6.160;2023-04-15T11:36:29;101294.06;;;17.68;51.50
4449;BME280;2237;51.870;6.160;2023-04-15T11:38:58;101292.69;;;17.59;53.98
4449;BME280;2237;51.870;6.160;2023-04-15T11:41:25;101290.06;;;17.59;53.32
4449;BME280;2237;51.870;6.160;2023-04-15T11:43:51;101283.63;;;17.85;52.91
4449;BME280;2237;51.870;6.160;2023-04-15T11:46:18;101288.56;;;17.92;50.99
4449;BME280;2237;51.870;6.160;2023-04-15T11:48:45;101279.22;;;17.67;51.19
4449;BME280;2237;51.870;6.160;2023-04-15T11:51:13;101287.94;;;18.06;50.35
4449;BME280;2237;51.870;6.160;2023-04-15T11:53:43;101295.28;;;18.18;48.63
4449;BME280;2237;51.870;6.160;2023-04-15T11:56:17;101278.41;;;18.03;49.67
4449;BME280;2237;51.870;6.160;2023-04-15T11:58:43;101291.44;;;18.06;49.94
4449;BME280;2237;51.870;6.160;2023-04-15T12:01:11;101297.22;;;18.15;49.57
4449;BME280;2237;51.870;6.160;2023-04-15T12:06:05;101301.66;;;17.55;50.92
4449;BME280;2237;51.870;6.160;2023-04-15T12:13:54;101316.72;;;17.92;50.30
4449;BME280;2237;51.870;6.160;2023-04-15T12:16:23;101314.84;;;17.94;50.13
4449;BME280;2237;51.870;6.160;2023-04-15T12:18:51;101313.19;;;17.73;50.10
4449;BME280;2237;51.870;6.160;2023-04-15T12:21:19;101315.63;;;17.57;50.08
4449;BME280;2237;51.870;6.160;2023-04-15T12:23:49;101324.06;;;17.23;50.75
4449;BME280;2237;51.870;6.160;2023-04-15T12:26:16;101327.69;;;17.21;51.73
4449;BME280;2237;51.870;6.160;2023-04-15T12:28:43;101336.03;;;17.30;53.03
4449;BME280;2237;51.870;6.160;2023-04-15T12:31:10;101343.25;;;17.47;53.34
4449;BME280;2237;51.870;6.160;2023-04-15T12:33:38;101346.06;;;17.64;52.91
4449;BME280;2237;51.870;6.160;2023-04-15T12:36:05;101347.50;;;18.10;51.21
4449;BME280;2237;51.870;6.160;2023-04-15T12:38:32;101348.94;;;18.17;50.45
4449;BME280;2237;51.870;6.160;2023-04-15T12:40:59;101345.13;;;18.43;49.35
4449;BME280;2237;51.870;6.160;2023-04-15T12:43:25;101353.25;;;17.99;49.55
4449;BME280;2237;51.870;6.160;2023-04-15T12:45:52;101350.34;;;18.05;50.51
4449;BME280;2237;51.870;6.160;2023-04-15T12:48:18;101362.59;;;18.45;49.95
4449;BME280;2237;51.870;6.160;2023-04-15T12:50:45;101362.84;;;18.59;48.41
4449;BME280;2237;51.870;6.160;2023-04-15T12:53:11;101369.06;;;18.20;49.82
4449;BME280;2237;51.870;6.160;2023-04-15T12:55:38;101353.00;;;17.85;50.64
4449;BME280;2237;51.870;6.160;2023-04-15T12:58:04;101377.44;;;18.09;48.92
4449;BME280;2237;51.870;6.160;2023-04-15T13:00:33;101354.44;;;18.13;48.48
4449;BME280;2237;51.870;6.160;2023-04-15T13:02:59;101376.53;;;18.29;47.95
4449;BME280;2237;51.870;6.160;2023-04-15T13:05:26;101372.31;;;18.43;47.90
4449;BME280;2237;51.870;6.160;2023-04-15T13:07:52;101374.78;;;18.48;48.13
4449;BME280;2237;51.870;6.160;2023-04-15T13:10:19;101370.91;;;18.92;46.97
4449;BME280;2237;51.870;6.160;2023-04-15T13:12:45;101375.88;;;18.98;47.35
4449;BME280;2237;51.870;6.160;2023-04-15T13:15:13;101387.44;;;19.14;47.10
4449;BME280;2237;51.870;6.160;2023-04-15T13:17:39;101383.16;;;19.12;46.68
4449;BME280;2237;51.870;6.160;2023-04-15T13:20:05;101392.03;;;18.92;47.21
4449;BME280;2237;51.870;6.160;2023-04-15T13:22:32;101393.34;;;18.65;47.59
4449;BME280;2237;51.870;6.160;2023-04-15T13:24:58;101386.38;;;18.44;48.49
4449;BME280;2237;51.870;6.160;2023-04-15T13:27:25;101385.44;;;18.26;48.67
4449;BME280;2237;51.870;6.160;2023-04-15T13:29:53;101396.56;;;18.33;48.82
4449;BME280;2237;51.870;6.160;2023-04-15T13:32:19;101394.06;;;18.30;49.70